Terminal Aerodrome Forecast
Issued by NWS Charleston, WV

Current Version | Previous Version | Text Only | Print | Product List | Glossary Off
Versions: 1 2 3 4 5 6 7 8 9 10 11 12 13 14 15 16 17 18

000
FTUS41 KRLX 210100 AAA
TAFPKB
TAF AMD
KPKB 210125Z 2101/2124 00000KT P6SM OVC020
      TEMPO 2101/2103 SCT025 OVC035
     FM211500 00000KT P6SM BKN010
     FM211800 00000KT P6SM BKN015
     FM212100 00000KT P6SM BKN025
     FM212200 00000KT P6SM SCT025=

USA.gov is the U.S. government's official web portal to all federal, state and local government web resources and services.